Patrai, Greece
Current Conditions -  °F | °C
As of 9:20 AM on Thursday 29 Jan 2015 (Local Time) from LGRX Reporting Station
Broken Clouds Broken Clouds  
Wind Chill: 48°   Ceiling: 8000
Heat Index: 48°   Visibility: 6mi
Dew Point: 46°   Wind: 3mph
Humidity: 93%   Direction: NA
Pressure: 29.62"   Gusts: NA
Location:  38.24°N, 21.73°E
Report Text: LGRX 290620Z VRB03KT 9999 FEW018TCU SCT025 BKN080 09/08 Q1003
Loading
Personal Weather Stations






























Interactive Weather Map New forecast layout! Learn more

10-Day Weather Forecast

Advertisements
Track Severe Weather on mobile